Как читать сводки погоды METAR

Погода играет ключевую роль в работе авиационного персонала. Несмотря на развитие передовых авиационных технологий, неблагоприятные погодные условия по-прежнему могут быть проблемой, которая может представлять опасность как для жизни людей, так и для имущества. Этот факт еще более усугубляется в случае дронов или БПЛА, которые намного меньше и легче подвержены влиянию ветра и дождя.

В рамках процесса получения лицензии на использование дронов Part 107 пилоты дронов проходят Ожидается, что он будет разбираться в сводках погоды. Стандартный метод сообщения о погодных условиях — это регулярная сводка погоды для авиации метеорологического терминала (METAR) — сильно сокращенный формат, который содержит много информации и не так прост для понимания непосвященным. В этой статье мы разбиваем отчеты METAR на отдельные элементы, чтобы помочь вам прочитать и понять их.

Курс для пилотов коммерческих дронов: используйте код купона ‘3dinsider50’, чтобы получить скидку в размере 50 долларов США от Института пилотов и пройти тест Part 107.

ЧАСТЬ 107: стало проще

  • Руководство по изучению вопросов и ответов на 161
  • 105 страниц иллюстрированного содержания
  • Охватывает все части теста Части 107
  • 97 долларов США за free

Что такое отчет METAR?

Для начала рассмотрим пример отчета METAR:

METAR KCLE 220136Z 31006KT 10SM FEW020 BKN024 OVC049 22/21 A2984 RMK A02 RAE04 P0000 T02220206

Это может выглядеть как набор случайных букв и цифр, но это наиболее распространенный метод сводок погоды, позволяющий быстро передавать исчерпывающие сведения в формирование по преобладающим погодным условиям. Поскольку сводки METAR строго стандартизированы Международной организацией гражданской авиации (ИКАО), их понимают во всем мире.

Чтобы помочь понять этот отчет METAR, мы выделяем и описываем каждый из его элементов.

1. Тип отчета

METAR KCLE 220136Z COR 31006KT 10SM SHRA FEW020 BKN024 OVC049 15/M01 A2984 RMK A02 RAE04 P0000 T02220206

Хотя идентификатор отчета присутствует не всегда, отсутствие этого идентификатора означает, что это сводка METAR. Сводки METAR — это регулярные отчеты, выпускаемые ежечасно. В исключительных случаях выпускаются внеплановые отчеты. Эти незапланированные и специальные отчеты можно идентифицировать с помощью тега SPECI.

2. Идентификатор станции

METAR KCLE 220136Z COR 31006KT 10SM SHRA FEW020 BKN024 OVC049 15/M01 A2984 RMK A02 RAE04 P0000 T02220206

Следующий элемент сводки METAR указывает станцию, которая выпускает отчет. Для станций в США этот термин можно выделить с помощью префикса K. В нашем примере KCLE относится к аэропорту Кливленд Хопкинс.. Есть тысячи станций, которые выдают METARS, а список стандартных идентификаторов поддерживается Всемирной метеорологической организацией (ВМО).

В рамках вашей подготовки, если вы планируете запускать дрон в коммерческих целях, вам необходимо идентифицировать ближайшие аэропорты и метеостанции и сканировать METAR, которые они выпускают. Таким образом, вам не нужно запоминать множество идентификаторов станций и отображать только те сводки METAR, которые имеют отношение к вам.

3. Дата и время

METAR KCLE 220136Z COR 31006KT 10SM SHRA FEW020 BKN024 OVC049 15/M01 A2984 RMK A02 RAE04 P0000 T02220206

Третий элемент сводки METAR описывает дату и время выпуска отчета. Первые две цифры относятся к дню месяца (22), а следующие четыре цифры относятся к времени (0136). Обратите внимание, что в отчете не указывается месяц или год. Суффикс Z этого элемента означает, что время указывается по зулусскому или среднему времени по Гринвичу. В зависимости от вашего местоположения будет лучше, если вы привыкнете переводить GMT в местное время.

4. Модификатор

METAR KCLE 220136Z COR 31006KT 10SM SHRA FEW020 BKN024 OVC049 15/M01 A2984 RMK A02 RAE04 P0000 T02220206

Хотя не всегда В настоящее время этот элемент METAR указывает, был ли отчет выпущен автоматизированной станцией (AUTO) или был ли отчет исправлен с помощью автоматизированного отчета (COR).

5. Информация о ветре

METAR KCLE 220136Z COR 31006KT 10SM SHRA FEW020 BKN024 OVC049 15/M01 A2984 RMK A02 RAE04 P0000 T02220206

Следующий Элемент METAR обобщает ветровые условия. Первые три числа (310) относятся к направлению источника ветра в градусах. В некоторых случаях переменное направление ветра может быть указано как «VRB».

Цифры после направления ветра относятся к скорости ветра в узлах (06KT = 6 узлов). В случаях, когда возникают порывы ветра, самая высокая скорость порыва отображается после скорости ветра. Например, 31006G12KT относится к ветру со скоростью 6 узлов и порывам, которые могут достигать 12 узлов.

6. Видимость

METAR KCLE 220136Z COR 31006KT 10SM SHRA FEW020 BKN024 OVC049 15/M01 A2984 RMK A02 RAE04 P0000 T02220206

В метеорологии, видимость измеряется в статутных милях (SM). В нашем примере видимость ограничена 10 статутными милями (10SM). Также можно сообщать о видимости с точностью до доли установленной мили. Например, 10 1/2 см означает видимость в 10,5 статутных миль.

7. Текущая погода

METAR KCLE 220136Z COR 31006KT 10SM SHRA FEW020 BKN024 OVC049 15/M01 A2984 RMK A02 RAE04 P0000 T02220206

Этот термин присутствует не всегда, но может использоваться для описания текущих погодных условий и наличия затемнений, если таковые имеются. В нашем примере SHRA означает наличие ливневого дождя (SH = ливень, RA = дождь).. Этот термин может быть даже более конкретным, используя различные дескрипторы и индикаторы интенсивности, как описано ниже:

r>

Intensity Дескриптор Осадки
(-) — Light MI: Shallow DZ: Морось BR: Mist
(без префикса) — умеренный BC: патчи RA: Rain FG: Fog
(+) — Тяжелый DR: низкий дрейф SN: снег FU: дым
BL: Дует SG: Снежные зерна VA: вулканический пепел
SH: ливни IC: ледяные кристаллы DU: широко распространены пыль
TS: Гроза PL: Гранулы льда SA: Песок
FZ: Замораживание GR: Hail HZ: Haze
PR: частичный GS: мелкий град или снежные гранулы PY : Спрей
UP: неизвестные осадки

8. Состояние неба

METAR KCLE 220136Z COR 31006KT 10SM SHRA FEW020 BKN024 OVC049 15/M01 A2984 RMK A02 RAE04 P0000 T02220206

Следующий Блок, вероятно, является самой длинной частью любого METAR и описывает состояние неба на разных высотах. Префиксы интерпретируются следующим образом:

SKC: Очистить (ручной отчет)

CLR: Очистить (автоматический отчет)

FEW: Немного (покрыто от 1/8 до 1/4 неба)

SCT: Рассеяно (покрыто от 3/8 до 1/2 неба)

BKN: Сломано ( От 5/8 до 7/8 неба покрыто)

OVC: пасмурно (общий охват неба)

Цифры после каждого префикса относятся к базовой высоте облаков в этих условиях выражается в сотнях футов над землей. В нашем примере есть облака росы на высоте 2000 футов (FEW020), разорванные облака на высоте 2400 футов (BKN024) и облачность на высоте 4900 футов и выше (OVC049).

9. Температура и точка росы

METAR KCLE 220136Z COR 31006KT 10SM SHRA FEW020 BKN024 OVC049 15/M01 A2984 RMK A02 RAE04 P0000 T02220206

Следующий член описывает фактическую измеренную температуру и температуру точки росы, выраженные в ° C. Проще говоря, температура точки росы — это температура, при которой влага в форме начинает конденсироваться в воду.

В нашем примере (15/M01) температура составляет 15 ° C, а точка росы температура -1 ° C. Префикс M указывает, что показание температуры находится в отрицательной области.

10. Высотомер и давление

METAR KCLE 220136Z COR 31006KT 10SM SHRA FEW020 BKN024 OVC049 15/M01 A2984 RMK A02 RAE04 P0000 T02220206

следующий термин описывает текущее давление на уровне моря, выраженное в дюймах ртутного столба (inHg).. Эта информация используется пилотами для проверки правильности калибровки их высотомеров и правильности их определения высоты.

В нашем примере термин A2984 означает, что давление в море составляет 29,84 дюйма ртутного столба. Хотя стандартное давление на уровне моря составляет 29,92 дюйма ртутного столба, местные погодные условия и возмущения могут постепенно смещать это значение.

11. Примечания

METAR KCLE 220136Z COR 31006KT 10SM SHRA FEW020 BKN024 OVC049 15/M01 A2984 RMK A02 RAE04 P0000 T02220206

Наконец, последние несколько терминов включают любые замечания, которые репортерная станция сочтет уместными. Целому разделу примечаний предшествует индикатор «RMK». Этот раздел имеет очень разнообразное содержание и может содержать информацию о типах станций, выпускающих отчет, о том, когда гроза началась или закончилась, давлении на уровне моря, информации о локализованных осадках, часовой температуре и точке росы (с точностью до десятых долей градуса), любые исправления, внесенные в отчет, и любые данные о техническом обслуживании станции.

В нашем примере в разделе примечаний говорится, что отчет был выпущен автоматической станцией с датчиком осадков (A02), дождь закончился через 4 минуты после начала часа (RAE04) в течение часа не было осадков (P0000), и что часовая температура и температура точки росы составляют 22,2 ° C и 20,6 ° C соответственно (T02220206).

Раздел примечаний может быть самой сложной частью METAR для интерпретации из-за огромного разнообразия информации, которую он может содержать. Более подробные руководства по декодированию и таблицы сокращений для раздела примечаний METAR можно найти на многих веб-сайтах, таких как DixWx Weather Source.

Заключительные мысли

Анализируя элементы которые составляют сводку METAR, легко понять, чем они могут быть полезны профессиональным пилотам дронов. Информация о количестве осадков, скорости ветра и облачности может помочь пилоту дрона решить, следует ли ему продолжать запланированный полет или нет. Преобладающие условия температуры и давления также влияют на то, какую подъемную силу могут генерировать пропеллеры дрона, что может быть особенно важно для пилота, который использует дроны с настраиваемой и большой полезной нагрузкой.

К счастью, знание того, как интерпретировать Отчеты METAR были включены в квалификацию пилота беспилотника, имеющего лицензию Part 107. Чтобы научиться читать сводки METAR, потребуется немного практики, но это не слишком сложно. В сводках METAR также, вероятно, содержится больше информации, чем может когда-либо понадобиться пилоту дронов, но это лучше, чем быть слепым. Обладая навыками интерпретации сводок METAR, профессиональные пилоты дронов могут выполнять длительные полеты без сюрпризов.

Оцените статью
futurei.ru
Добавить комментарий